sensor_id;sensor_type;location;lat;lon;timestamp;temperature;humidity
770;DHT22;368;48.698;9.116;2022-11-15T00:01:58;6.10;99.90
770;DHT22;368;48.698;9.116;2022-11-15T00:04:26;6.10;99.90
770;DHT22;368;48.698;9.116;2022-11-15T00:06:52;6.20;99.90
770;DHT22;368;48.698;9.116;2022-11-15T00:09:19;6.00;99.90
770;DHT22;368;48.698;9.116;2022-11-15T00:11:46;6.30;99.90
770;DHT22;368;48.698;9.116;2022-11-15T00:14:13;6.20;99.90
770;DHT22;368;48.698;9.116;2022-11-15T00:16:39;6.00;99.90
770;DHT22;368;48.698;9.116;2022-11-15T00:19:06;6.10;99.90
770;DHT22;368;48.698;9.116;2022-11-15T00:21:34;5.80;99.90
770;DHT22;368;48.698;9.116;2022-11-15T00:24:01;5.80;99.90
770;DHT22;368;48.698;9.116;2022-11-15T00:26:28;5.90;99.90
770;DHT22;368;48.698;9.116;2022-11-15T00:28:55;5.80;99.90
770;DHT22;368;48.698;9.116;2022-11-15T00:31:22;6.20;99.90
770;DHT22;368;48.698;9.116;2022-11-15T00:33:48;6.40;99.90
770;DHT22;368;48.698;9.116;2022-11-15T00:36:15;6.40;99.90
770;DHT22;368;48.698;9.116;2022-11-15T00:38:43;6.40;99.90
770;DHT22;368;48.698;9.116;2022-11-15T00:41:10;5.90;99.90
770;DHT22;368;48.698;9.116;2022-11-15T00:43:37;6.30;99.90
770;DHT22;368;48.698;9.116;2022-11-15T00:46:05;6.10;99.90
770;DHT22;368;48.698;9.116;2022-11-15T00:48:33;6.10;99.90
770;DHT22;368;48.698;9.116;2022-11-15T00:51:00;6.20;99.90
770;DHT22;368;48.698;9.116;2022-11-15T00:53:27;6.20;99.90
770;DHT22;368;48.698;9.116;2022-11-15T00:55:55;6.00;99.90
770;DHT22;368;48.698;9.116;2022-11-15T00:58:22;6.00;99.90
770;DHT22;368;48.698;9.116;2022-11-15T01:00:49;6.10;99.90
770;DHT22;368;48.698;9.116;2022-11-15T01:03:16;6.00;99.90
770;DHT22;368;48.698;9.116;2022-11-15T01:05:43;5.90;99.90
770;DHT22;368;48.698;9.116;2022-11-15T01:08:12;6.30;99.90
770;DHT22;368;48.698;9.116;2022-11-15T01:10:39;6.00;99.90
770;DHT22;368;48.698;9.116;2022-11-15T01:13:07;6.30;99.90
770;DHT22;368;48.698;9.116;2022-11-15T01:15:34;6.00;99.90
770;DHT22;368;48.698;9.116;2022-11-15T01:18:01;6.00;99.90
770;DHT22;368;48.698;9.116;2022-11-15T01:20:27;5.70;99.90
770;DHT22;368;48.698;9.116;2022-11-15T01:22:55;5.60;99.90
770;DHT22;368;48.698;9.116;2022-11-15T01:25:21;5.80;99.90
770;DHT22;368;48.698;9.116;2022-11-15T01:27:48;5.80;99.90
770;DHT22;368;48.698;9.116;2022-11-15T01:30:16;6.20;99.90
770;DHT22;368;48.698;9.116;2022-11-15T01:32:43;6.20;99.90
770;DHT22;368;48.698;9.116;2022-11-15T01:35:10;6.10;99.90
770;DHT22;368;48.698;9.116;2022-11-15T01:37:37;5.80;99.90
770;DHT22;368;48.698;9.116;2022-11-15T01:40:04;5.90;99.90
770;DHT22;368;48.698;9.116;2022-11-15T01:42:31;5.80;99.90
770;DHT22;368;48.698;9.116;2022-11-15T01:44:58;6.20;99.90
770;DHT22;368;48.698;9.116;2022-11-15T01:47:29;6.20;99.90
770;DHT22;368;48.698;9.116;2022-11-15T01:50:00;6.20;99.90
770;DHT22;368;48.698;9.116;2022-11-15T01:52:30;6.00;99.90
770;DHT22;368;48.698;9.116;2022-11-15T01:55:02;5.90;99.90
770;DHT22;368;48.698;9.116;2022-11-15T01:57:30;5.70;99.90
770;DHT22;368;48.698;9.116;2022-11-15T01:59:57;5.50;99.90
770;DHT22;368;48.698;9.116;2022-11-15T02:02:26;5.90;99.90
770;DHT22;368;48.698;9.116;2022-11-15T02:04:53;6.00;99.90
770;DHT22;368;48.698;9.116;2022-11-15T02:07:21;5.60;99.90
770;DHT22;368;48.698;9.116;2022-11-15T02:09:49;5.30;99.90
770;DHT22;368;48.698;9.116;2022-11-15T02:12:19;5.50;99.90
770;DHT22;368;48.698;9.116;2022-11-15T02:14:48;5.30;99.90
770;DHT22;368;48.698;9.116;2022-11-15T02:17:36;5.30;99.90
770;DHT22;368;48.698;9.116;2022-11-15T02:20:20;5.30;99.90
770;DHT22;368;48.698;9.116;2022-11-15T02:23:07;5.30;99.90
770;DHT22;368;48.698;9.116;2022-11-15T02:25:40;5.20;99.90
770;DHT22;368;48.698;9.116;2022-11-15T02:28:31;5.20;99.90
770;DHT22;368;48.698;9.116;2022-11-15T02:31:04;5.40;99.90
770;DHT22;368;48.698;9.116;2022-11-15T02:33:38;5.20;99.90
770;DHT22;368;48.698;9.116;2022-11-15T02:36:12;5.30;99.90
770;DHT22;368;48.698;9.116;2022-11-15T02:38:47;5.30;99.90
770;DHT22;368;48.698;9.116;2022-11-15T02:41:21;5.40;99.90
770;DHT22;368;48.698;9.116;2022-11-15T02:43:54;5.50;99.90
770;DHT22;368;48.698;9.116;2022-11-15T02:46:26;5.50;99.90
770;DHT22;368;48.698;9.116;2022-11-15T02:49:09;5.80;99.90
770;DHT22;368;48.698;9.116;2022-11-15T02:51:37;5.70;99.90
770;DHT22;368;48.698;9.116;2022-11-15T02:54:04;5.60;99.90
770;DHT22;368;48.698;9.116;2022-11-15T02:56:31;5.60;99.90
770;DHT22;368;48.698;9.116;2022-11-15T03:02:02;5.20;99.90
770;DHT22;368;48.698;9.116;2022-11-15T03:04:39;5.30;99.90
770;DHT22;368;48.698;9.116;2022-11-15T03:07:13;5.20;99.90
770;DHT22;368;48.698;9.116;2022-11-15T03:09:48;5.30;99.90
770;DHT22;368;48.698;9.116;2022-11-15T03:12:25;5.20;99.90
770;DHT22;368;48.698;9.116;2022-11-15T03:14:57;5.20;99.90
770;DHT22;368;48.698;9.116;2022-11-15T03:17:29;5.50;99.90
770;DHT22;368;48.698;9.116;2022-11-15T03:19:59;5.50;99.90
770;DHT22;368;48.698;9.116;2022-11-15T03:22:29;5.30;99.90
770;DHT22;368;48.698;9.116;2022-11-15T03:25:05;5.30;99.90
770;DHT22;368;48.698;9.116;2022-11-15T03:27:37;5.50;99.90
770;DHT22;368;48.698;9.116;2022-11-15T03:30:07;5.50;99.90
770;DHT22;368;48.698;9.116;2022-11-15T03:32:38;5.50;99.90
770;DHT22;368;48.698;9.116;2022-11-15T03:35:09;5.60;99.90
770;DHT22;368;48.698;9.116;2022-11-15T03:37:41;5.40;99.90
770;DHT22;368;48.698;9.116;2022-11-15T03:40:10;5.70;99.90
770;DHT22;368;48.698;9.116;2022-11-15T03:42:43;5.60;99.90
770;DHT22;368;48.698;9.116;2022-11-15T03:45:15;5.70;99.90
770;DHT22;368;48.698;9.116;2022-11-15T03:47:48;5.90;99.90
770;DHT22;368;48.698;9.116;2022-11-15T03:50:18;5.90;99.90
770;DHT22;368;48.698;9.116;2022-11-15T03:52:46;5.80;99.90
770;DHT22;368;48.698;9.116;2022-11-15T03:55:17;6.00;99.90
770;DHT22;368;48.698;9.116;2022-11-15T03:57:45;5.70;99.90
770;DHT22;368;48.698;9.116;2022-11-15T04:00:12;5.80;99.90
770;DHT22;368;48.698;9.116;2022-11-15T04:02:39;5.80;99.90
770;DHT22;368;48.698;9.116;2022-11-15T04:05:08;5.80;99.90
770;DHT22;368;48.698;9.116;2022-11-15T04:07:34;5.50;99.90
770;DHT22;368;48.698;9.116;2022-11-15T04:10:01;5.90;99.90
770;DHT22;368;48.698;9.116;2022-11-15T04:12:33;5.60;99.90
770;DHT22;368;48.698;9.116;2022-11-15T04:15:01;5.70;99.90
770;DHT22;368;48.698;9.116;2022-11-15T04:17:39;5.60;99.90
770;DHT22;368;48.698;9.116;2022-11-15T04:20:10;5.50;99.90
770;DHT22;368;48.698;9.116;2022-11-15T04:22:56;5.40;99.90
770;DHT22;368;48.698;9.116;2022-11-15T04:25:41;5.50;99.90
770;DHT22;368;48.698;9.116;2022-11-15T04:28:08;5.40;99.90
770;DHT22;368;48.698;9.116;2022-11-15T04:30:35;5.60;99.90
770;DHT22;368;48.698;9.116;2022-11-15T04:33:02;5.40;99.90
770;DHT22;368;48.698;9.116;2022-11-15T04:35:30;5.30;99.90
770;DHT22;368;48.698;9.116;2022-11-15T04:37:58;5.40;99.90
770;DHT22;368;48.698;9.116;2022-11-15T04:40:25;5.40;99.90
770;DHT22;368;48.698;9.116;2022-11-15T04:42:51;5.30;99.90
770;DHT22;368;48.698;9.116;2022-11-15T04:45:18;5.40;99.90
770;DHT22;368;48.698;9.116;2022-11-15T04:47:46;5.30;99.90
770;DHT22;368;48.698;9.116;2022-11-15T04:50:14;5.20;99.90
770;DHT22;368;48.698;9.116;2022-11-15T04:52:43;5.40;99.90
770;DHT22;368;48.698;9.116;2022-11-15T04:55:10;5.40;99.90
770;DHT22;368;48.698;9.116;2022-11-15T04:57:37;5.50;99.90
770;DHT22;368;48.698;9.116;2022-11-15T05:00:07;5.50;99.90
770;DHT22;368;48.698;9.116;2022-11-15T05:02:34;5.60;99.90
770;DHT22;368;48.698;9.116;2022-11-15T05:05:19;5.70;99.90
770;DHT22;368;48.698;9.116;2022-11-15T05:07:47;5.80;99.90
770;DHT22;368;48.698;9.116;2022-11-15T05:10:14;5.60;99.90
770;DHT22;368;48.698;9.116;2022-11-15T05:12:42;5.60;99.90
770;DHT22;368;48.698;9.116;2022-11-15T05:15:09;5.30;99.90
770;DHT22;368;48.698;9.116;2022-11-15T05:17:36;5.10;99.90
770;DHT22;368;48.698;9.116;2022-11-15T05:20:03;4.90;99.90
770;DHT22;368;48.698;9.116;2022-11-15T05:22:30;5.30;99.90
770;DHT22;368;48.698;9.116;2022-11-15T05:24:58;5.40;99.90
770;DHT22;368;48.698;9.116;2022-11-15T05:27:25;4.90;99.90
770;DHT22;368;48.698;9.116;2022-11-15T05:29:52;5.10;99.90
770;DHT22;368;48.698;9.116;2022-11-15T05:32:19;4.90;99.90
770;DHT22;368;48.698;9.116;2022-11-15T05:34:45;5.00;99.90
770;DHT22;368;48.698;9.116;2022-11-15T05:37:13;5.00;99.90
770;DHT22;368;48.698;9.116;2022-11-15T05:39:40;5.10;99.90
770;DHT22;368;48.698;9.116;2022-11-15T05:42:10;5.00;99.90
770;DHT22;368;48.698;9.116;2022-11-15T05:44:40;5.00;99.90
770;DHT22;368;48.698;9.116;2022-11-15T05:47:10;5.40;99.90
770;DHT22;368;48.698;9.116;2022-11-15T05:49:38;5.20;99.90
770;DHT22;368;48.698;9.116;2022-11-15T05:52:08;5.50;99.90
770;DHT22;368;48.698;9.116;2022-11-15T05:54:37;5.40;99.90
770;DHT22;368;48.698;9.116;2022-11-15T05:57:04;5.30;99.90
770;DHT22;368;48.698;9.116;2022-11-15T05:59:33;5.40;99.90
770;DHT22;368;48.698;9.116;2022-11-15T06:02:01;5.30;99.90
770;DHT22;368;48.698;9.116;2022-11-15T06:04:27;5.10;99.90
770;DHT22;368;48.698;9.116;2022-11-15T06:06:54;5.10;99.90
770;DHT22;368;48.698;9.116;2022-11-15T06:09:21;5.10;99.90
770;DHT22;368;48.698;9.116;2022-11-15T06:11:48;5.10;99.90
770;DHT22;368;48.698;9.116;2022-11-15T06:14:15;5.00;99.90
770;DHT22;368;48.698;9.116;2022-11-15T06:16:43;4.90;99.90
770;DHT22;368;48.698;9.116;2022-11-15T06:19:10;4.90;99.90
770;DHT22;368;48.698;9.116;2022-11-15T06:21:37;5.00;99.90
770;DHT22;368;48.698;9.116;2022-11-15T06:24:05;5.10;99.90
770;DHT22;368;48.698;9.116;2022-11-15T06:26:32;5.00;99.90
770;DHT22;368;48.698;9.116;2022-11-15T06:28:59;4.80;99.90
770;DHT22;368;48.698;9.116;2022-11-15T06:31:25;4.70;99.90
770;DHT22;368;48.698;9.116;2022-11-15T06:33:54;4.90;99.90
770;DHT22;368;48.698;9.116;2022-11-15T06:36:21;5.20;99.90
770;DHT22;368;48.698;9.116;2022-11-15T06:38:48;5.20;99.90
770;DHT22;368;48.698;9.116;2022-11-15T06:41:15;5.30;99.90
770;DHT22;368;48.698;9.116;2022-11-15T06:43:43;5.30;99.90
770;DHT22;368;48.698;9.116;2022-11-15T06:46:10;5.30;99.90
770;DHT22;368;48.698;9.116;2022-11-15T06:48:37;5.40;99.90
770;DHT22;368;48.698;9.116;2022-11-15T06:51:06;5.40;99.90
770;DHT22;368;48.698;9.116;2022-11-15T06:53:33;5.40;99.90
770;DHT22;368;48.698;9.116;2022-11-15T06:56:01;5.50;99.90
770;DHT22;368;48.698;9.116;2022-11-15T06:58:28;5.80;99.90
770;DHT22;368;48.698;9.116;2022-11-15T07:00:59;5.80;99.90
770;DHT22;368;48.698;9.116;2022-11-15T07:03:26;5.70;99.90
770;DHT22;368;48.698;9.116;2022-11-15T07:05:54;5.80;99.90
770;DHT22;368;48.698;9.116;2022-11-15T07:08:24;5.70;99.90
770;DHT22;368;48.698;9.116;2022-11-15T07:10:51;5.50;99.90
770;DHT22;368;48.698;9.116;2022-11-15T07:13:17;5.70;99.90
770;DHT22;368;48.698;9.116;2022-11-15T07:15:44;5.80;99.90
770;DHT22;368;48.698;9.116;2022-11-15T07:18:11;6.00;99.90
770;DHT22;368;48.698;9.116;2022-11-15T07:20:38;5.90;99.90
770;DHT22;368;48.698;9.116;2022-11-15T07:23:06;5.90;99.90
770;DHT22;368;48.698;9.116;2022-11-15T07:25:34;6.00;99.90
770;DHT22;368;48.698;9.116;2022-11-15T07:28:01;5.90;99.90
770;DHT22;368;48.698;9.116;2022-11-15T07:30:28;6.20;99.90
770;DHT22;368;48.698;9.116;2022-11-15T07:32:57;6.40;99.90
770;DHT22;368;48.698;9.116;2022-11-15T07:35:25;6.60;99.90
770;DHT22;368;48.698;9.116;2022-11-15T07:37:55;6.50;99.90
770;DHT22;368;48.698;9.116;2022-11-15T07:40:22;6.50;99.90
770;DHT22;368;48.698;9.116;2022-11-15T07:42:51;7.30;99.90
770;DHT22;368;48.698;9.116;2022-11-15T07:45:22;7.40;99.90
770;DHT22;368;48.698;9.116;2022-11-15T07:47:51;7.90;99.90
770;DHT22;368;48.698;9.116;2022-11-15T07:50:19;8.30;99.90
770;DHT22;368;48.698;9.116;2022-11-15T07:52:46;8.50;99.90
770;DHT22;368;48.698;9.116;2022-11-15T07:55:13;8.80;99.90
770;DHT22;368;48.698;9.116;2022-11-15T07:57:40;9.00;99.90
770;DHT22;368;48.698;9.116;2022-11-15T08:00:10;8.60;99.90
770;DHT22;368;48.698;9.116;2022-11-15T08:02:37;8.70;99.90
770;DHT22;368;48.698;9.116;2022-11-15T08:05:05;9.10;99.90
770;DHT22;368;48.698;9.116;2022-11-15T08:07:32;9.40;99.90
770;DHT22;368;48.698;9.116;2022-11-15T08:10:00;9.40;99.90
770;DHT22;368;48.698;9.116;2022-11-15T08:12:34;9.70;99.90
770;DHT22;368;48.698;9.116;2022-11-15T08:15:01;9.50;99.90
770;DHT22;368;48.698;9.116;2022-11-15T08:17:30;9.40;99.90
770;DHT22;368;48.698;9.116;2022-11-15T08:19:59;9.40;99.90
770;DHT22;368;48.698;9.116;2022-11-15T08:22:26;9.50;99.90
770;DHT22;368;48.698;9.116;2022-11-15T08:24:53;9.30;99.90
770;DHT22;368;48.698;9.116;2022-11-15T08:27:20;9.10;99.90
770;DHT22;368;48.698;9.116;2022-11-15T08:29:49;9.20;99.90
770;DHT22;368;48.698;9.116;2022-11-15T08:32:16;9.20;99.90
770;DHT22;368;48.698;9.116;2022-11-15T08:34:44;9.10;99.90
770;DHT22;368;48.698;9.116;2022-11-15T08:37:11;9.30;99.90
770;DHT22;368;48.698;9.116;2022-11-15T08:39:38;9.70;99.90
770;DHT22;368;48.698;9.116;2022-11-15T08:42:05;10.00;99.90
770;DHT22;368;48.698;9.116;2022-11-15T08:44:33;9.90;99.90
770;DHT22;368;48.698;9.116;2022-11-15T08:47:00;10.10;99.90
770;DHT22;368;48.698;9.116;2022-11-15T08:49:27;9.90;99.90
770;DHT22;368;48.698;9.116;2022-11-15T08:51:55;10.20;99.90
770;DHT22;368;48.698;9.116;2022-11-15T08:54:22;10.50;99.90
770;DHT22;368;48.698;9.116;2022-11-15T08:56:49;10.90;99.90
770;DHT22;368;48.698;9.116;2022-11-15T08:59:15;10.90;99.90
770;DHT22;368;48.698;9.116;2022-11-15T09:01:42;11.30;99.90
770;DHT22;368;48.698;9.116;2022-11-15T09:04:09;11.70;99.90
770;DHT22;368;48.698;9.116;2022-11-15T09:06:36;11.60;99.90
770;DHT22;368;48.698;9.116;2022-11-15T09:09:04;11.50;99.90
770;DHT22;368;48.698;9.116;2022-11-15T09:11:31;11.90;99.90
770;DHT22;368;48.698;9.116;2022-11-15T09:13:58;12.00;99.90
770;DHT22;368;48.698;9.116;2022-11-15T09:16:25;12.10;99.90
770;DHT22;368;48.698;9.116;2022-11-15T09:18:52;12.00;99.90
770;DHT22;368;48.698;9.116;2022-11-15T09:21:20;12.30;99.90
770;DHT22;368;48.698;9.116;2022-11-15T09:23:50;12.40;99.90
770;DHT22;368;48.698;9.116;2022-11-15T09:26:19;13.40;99.90
770;DHT22;368;48.698;9.116;2022-11-15T09:28:45;13.20;99.90
770;DHT22;368;48.698;9.116;2022-11-15T09:31:12;13.60;99.90
770;DHT22;368;48.698;9.116;2022-11-15T09:33:39;13.30;99.90
770;DHT22;368;48.698;9.116;2022-11-15T09:36:08;13.30;99.60
770;DHT22;368;48.698;9.116;2022-11-15T09:38:36;13.30;99.90
770;DHT22;368;48.698;9.116;2022-11-15T09:41:29;13.10;99.90
770;DHT22;368;48.698;9.116;2022-11-15T09:44:10;13.60;99.90
770;DHT22;368;48.698;9.116;2022-11-15T09:46:47;13.90;99.90
770;DHT22;368;48.698;9.116;2022-11-15T09:49:17;13.50;99.90
770;DHT22;368;48.698;9.116;2022-11-15T09:51:48;13.80;99.60
770;DHT22;368;48.698;9.116;2022-11-15T09:54:23;13.70;99.90
770;DHT22;368;48.698;9.116;2022-11-15T09:56:56;14.00;99.70
770;DHT22;368;48.698;9.116;2022-11-15T09:59:38;13.70;99.90
770;DHT22;368;48.698;9.116;2022-11-15T10:02:19;13.90;99.90
770;DHT22;368;48.698;9.116;2022-11-15T10:04:49;14.10;99.90
770;DHT22;368;48.698;9.116;2022-11-15T10:07:20;14.10;99.90
770;DHT22;368;48.698;9.116;2022-11-15T10:09:52;14.10;99.90
770;DHT22;368;48.698;9.116;2022-11-15T10:12:22;13.90;99.70
770;DHT22;368;48.698;9.116;2022-11-15T10:14:54;13.90;99.90
770;DHT22;368;48.698;9.116;2022-11-15T10:17:46;13.90;99.90
770;DHT22;368;48.698;9.116;2022-11-15T10:20:20;14.00;99.80
770;DHT22;368;48.698;9.116;2022-11-15T10:22:50;13.80;99.80
770;DHT22;368;48.698;9.116;2022-11-15T10:25:22;14.00;99.60
770;DHT22;368;48.698;9.116;2022-11-15T10:27:56;14.30;99.70
770;DHT22;368;48.698;9.116;2022-11-15T10:30:32;14.30;99.90
770;DHT22;368;48.698;9.116;2022-11-15T10:33:10;14.10;99.90
770;DHT22;368;48.698;9.116;2022-11-15T10:35:38;14.20;99.70
770;DHT22;368;48.698;9.116;2022-11-15T10:38:07;14.40;99.90
770;DHT22;368;48.698;9.116;2022-11-15T10:40:34;14.40;99.90
770;DHT22;368;48.698;9.116;2022-11-15T10:43:14;14.30;99.90
770;DHT22;368;48.698;9.116;2022-11-15T10:45:44;14.20;99.90
770;DHT22;368;48.698;9.116;2022-11-15T10:48:23;13.80;99.90
770;DHT22;368;48.698;9.116;2022-11-15T10:50:50;14.30;99.90
770;DHT22;368;48.698;9.116;2022-11-15T10:53:23;13.80;99.90
770;DHT22;368;48.698;9.116;2022-11-15T10:55:52;13.70;99.90
770;DHT22;368;48.698;9.116;2022-11-15T10:58:33;13.70;99.90
770;DHT22;368;48.698;9.116;2022-11-15T11:01:12;13.50;99.90
770;DHT22;368;48.698;9.116;2022-11-15T11:03:42;13.70;99.90
770;DHT22;368;48.698;9.116;2022-11-15T11:06:11;13.60;99.90
770;DHT22;368;48.698;9.116;2022-11-15T11:08:39;13.60;99.90
770;DHT22;368;48.698;9.116;2022-11-15T11:11:06;13.60;99.90
770;DHT22;368;48.698;9.116;2022-11-15T11:13:36;14.00;99.90
770;DHT22;368;48.698;9.116;2022-11-15T11:16:20;13.80;99.90
770;DHT22;368;48.698;9.116;2022-11-15T11:18:55;14.00;99.90
770;DHT22;368;48.698;9.116;2022-11-15T11:21:29;14.00;99.90
770;DHT22;368;48.698;9.116;2022-11-15T11:24:04;14.00;99.90
770;DHT22;368;48.698;9.116;2022-11-15T11:26:40;14.20;99.90
770;DHT22;368;48.698;9.116;2022-11-15T11:29:25;14.40;99.90
770;DHT22;368;48.698;9.116;2022-11-15T11:31:58;13.90;99.90
770;DHT22;368;48.698;9.116;2022-11-15T11:34:41;14.20;99.90
770;DHT22;368;48.698;9.116;2022-11-15T11:37:16;14.00;99.90
770;DHT22;368;48.698;9.116;2022-11-15T11:39:52;13.90;99.90
770;DHT22;368;48.698;9.116;2022-11-15T11:42:30;14.00;99.90
770;DHT22;368;48.698;9.116;2022-11-15T11:45:11;13.80;99.90
770;DHT22;368;48.698;9.116;2022-11-15T11:47:47;14.20;99.90
770;DHT22;368;48.698;9.116;2022-11-15T11:50:17;14.30;99.90
770;DHT22;368;48.698;9.116;2022-11-15T11:52:57;14.40;99.90
770;DHT22;368;48.698;9.116;2022-11-15T11:55:28;14.30;99.90
770;DHT22;368;48.698;9.116;2022-11-15T11:58:04;14.60;99.90
770;DHT22;368;48.698;9.116;2022-11-15T12:00:41;14.60;99.90
770;DHT22;368;48.698;9.116;2022-11-15T12:03:12;14.80;99.90
770;DHT22;368;48.698;9.116;2022-11-15T12:05:43;15.00;99.90
770;DHT22;368;48.698;9.116;2022-11-15T12:08:22;15.00;99.90
770;DHT22;368;48.698;9.116;2022-11-15T12:10:55;14.70;99.90
770;DHT22;368;48.698;9.116;2022-11-15T12:13:26;14.30;99.90
770;DHT22;368;48.698;9.116;2022-11-15T12:16:05;14.30;99.90
770;DHT22;368;48.698;9.116;2022-11-15T12:18:35;14.10;99.90
770;DHT22;368;48.698;9.116;2022-11-15T12:21:06;14.40;99.90
770;DHT22;368;48.698;9.116;2022-11-15T12:23:40;14.40;99.90
770;DHT22;368;48.698;9.116;2022-11-15T12:26:10;14.20;99.90
770;DHT22;368;48.698;9.116;2022-11-15T12:28:41;14.20;99.90
770;DHT22;368;48.698;9.116;2022-11-15T12:31:14;14.10;99.90
770;DHT22;368;48.698;9.116;2022-11-15T12:33:44;14.20;99.90
770;DHT22;368;48.698;9.116;2022-11-15T12:36:30;14.30;99.90
770;DHT22;368;48.698;9.116;2022-11-15T12:39:01;13.90;99.90
770;DHT22;368;48.698;9.116;2022-11-15T12:41:30;14.10;99.90
770;DHT22;368;48.698;9.116;2022-11-15T12:43:57;14.10;99.90
770;DHT22;368;48.698;9.116;2022-11-15T12:49:45;14.10;99.90
770;DHT22;368;48.698;9.116;2022-11-15T12:52:12;14.30;99.90
770;DHT22;368;48.698;9.116;2022-11-15T12:54:57;14.30;99.90
770;DHT22;368;48.698;9.116;2022-11-15T12:57:40;14.10;99.90
770;DHT22;368;48.698;9.116;2022-11-15T13:03:19;13.90;99.90
770;DHT22;368;48.698;9.116;2022-11-15T13:05:59;14.50;99.90
770;DHT22;368;48.698;9.116;2022-11-15T13:08:47;14.10;99.90
770;DHT22;368;48.698;9.116;2022-11-15T13:11:50;14.10;99.90
770;DHT22;368;48.698;9.116;2022-11-15T13:14:43;14.10;99.90
770;DHT22;368;48.698;9.116;2022-11-15T13:17:37;13.90;99.90
770;DHT22;368;48.698;9.116;2022-11-15T13:20:26;13.90;99.90
770;DHT22;368;48.698;9.116;2022-11-15T13:23:01;13.90;99.90
770;DHT22;368;48.698;9.116;2022-11-15T13:26:06;14.00;99.90
770;DHT22;368;48.698;9.116;2022-11-15T13:28:37;14.30;99.90
770;DHT22;368;48.698;9.116;2022-11-15T13:31:24;14.00;99.90
770;DHT22;368;48.698;9.116;2022-11-15T13:33:53;13.90;99.90
770;DHT22;368;48.698;9.116;2022-11-15T13:36:23;13.90;99.90
770;DHT22;368;48.698;9.116;2022-11-15T13:38:57;13.90;99.90
770;DHT22;368;48.698;9.116;2022-11-15T13:41:26;13.70;99.90
770;DHT22;368;48.698;9.116;2022-11-15T13:43:54;13.50;99.90
770;DHT22;368;48.698;9.116;2022-11-15T13:46:22;13.50;99.90
770;DHT22;368;48.698;9.116;2022-11-15T13:48:55;13.60;99.90
770;DHT22;368;48.698;9.116;2022-11-15T13:51:28;13.60;99.90
770;DHT22;368;48.698;9.116;2022-11-15T13:54:00;13.50;99.90
770;DHT22;368;48.698;9.116;2022-11-15T13:56:29;13.40;99.90
770;DHT22;368;48.698;9.116;2022-11-15T13:58:58;13.30;99.90
770;DHT22;368;48.698;9.116;2022-11-15T14:01:26;13.40;99.90
770;DHT22;368;48.698;9.116;2022-11-15T14:03:57;13.20;99.90
770;DHT22;368;48.698;9.116;2022-11-15T14:06:27;13.20;99.90
770;DHT22;368;48.698;9.116;2022-11-15T14:12:01;12.80;99.90
770;DHT22;368;48.698;9.116;2022-11-15T14:14:29;13.00;99.90
770;DHT22;368;48.698;9.116;2022-11-15T14:16:58;12.80;99.90
770;DHT22;368;48.698;9.116;2022-11-15T14:19:37;13.10;99.90
770;DHT22;368;48.698;9.116;2022-11-15T14:22:18;13.40;99.90
770;DHT22;368;48.698;9.116;2022-11-15T14:27:31;13.20;99.90
770;DHT22;368;48.698;9.116;2022-11-15T14:29:58;12.90;99.90
770;DHT22;368;48.698;9.116;2022-11-15T14:32:26;12.90;99.90
770;DHT22;368;48.698;9.116;2022-11-15T14:34:55;12.90;99.90
770;DHT22;368;48.698;9.116;2022-11-15T14:37:24;13.10;99.90
770;DHT22;368;48.698;9.116;2022-11-15T14:39:52;12.90;99.90
770;DHT22;368;48.698;9.116;2022-11-15T14:42:21;12.70;99.90
770;DHT22;368;48.698;9.116;2022-11-15T14:44:49;12.80;99.90
770;DHT22;368;48.698;9.116;2022-11-15T14:47:16;12.70;99.90
770;DHT22;368;48.698;9.116;2022-11-15T14:49:44;12.80;99.90
770;DHT22;368;48.698;9.116;2022-11-15T14:52:23;12.70;99.90
770;DHT22;368;48.698;9.116;2022-11-15T14:54:50;12.90;99.90
770;DHT22;368;48.698;9.116;2022-11-15T14:57:17;12.80;99.90
770;DHT22;368;48.698;9.116;2022-11-15T14:59:44;12.70;99.90
770;DHT22;368;48.698;9.116;2022-11-15T15:02:17;12.50;99.90
770;DHT22;368;48.698;9.116;2022-11-15T15:04:44;12.40;99.90
770;DHT22;368;48.698;9.116;2022-11-15T15:07:11;12.30;99.90
770;DHT22;368;48.698;9.116;2022-11-15T15:09:38;12.30;99.90
770;DHT22;368;48.698;9.116;2022-11-15T15:12:05;12.30;99.90
770;DHT22;368;48.698;9.116;2022-11-15T15:14:37;11.90;99.90
770;DHT22;368;48.698;9.116;2022-11-15T15:17:04;12.20;99.90
770;DHT22;368;48.698;9.116;2022-11-15T15:19:33;12.20;99.90
770;DHT22;368;48.698;9.116;2022-11-15T15:22:00;11.90;99.90
770;DHT22;368;48.698;9.116;2022-11-15T15:24:27;12.20;99.90
770;DHT22;368;48.698;9.116;2022-11-15T15:26:53;11.60;99.90
770;DHT22;368;48.698;9.116;2022-11-15T15:29:20;11.40;99.90
770;DHT22;368;48.698;9.116;2022-11-15T15:31:47;11.40;99.90
770;DHT22;368;48.698;9.116;2022-11-15T15:34:14;11.50;99.90
770;DHT22;368;48.698;9.116;2022-11-15T15:36:43;11.40;99.90
770;DHT22;368;48.698;9.116;2022-11-15T15:39:10;11.30;99.90
770;DHT22;368;48.698;9.116;2022-11-15T15:41:37;11.30;99.90
770;DHT22;368;48.698;9.116;2022-11-15T15:44:05;10.90;99.90
770;DHT22;368;48.698;9.116;2022-11-15T15:46:34;11.10;99.90
770;DHT22;368;48.698;9.116;2022-11-15T15:49:00;10.80;99.90
770;DHT22;368;48.698;9.116;2022-11-15T15:51:28;10.90;99.90
770;DHT22;368;48.698;9.116;2022-11-15T15:53:57;10.80;99.90
770;DHT22;368;48.698;9.116;2022-11-15T15:56:24;10.80;99.90
770;DHT22;368;48.698;9.116;2022-11-15T15:58:53;10.80;99.90
770;DHT22;368;48.698;9.116;2022-11-15T16:01:21;10.70;99.90
770;DHT22;368;48.698;9.116;2022-11-15T16:03:47;10.60;99.90
770;DHT22;368;48.698;9.116;2022-11-15T16:06:34;10.60;99.90
770;DHT22;368;48.698;9.116;2022-11-15T16:09:04;10.60;99.90
770;DHT22;368;48.698;9.116;2022-11-15T16:11:31;10.50;99.90
770;DHT22;368;48.698;9.116;2022-11-15T16:13:57;10.50;99.90
770;DHT22;368;48.698;9.116;2022-11-15T16:16:24;10.60;99.90
770;DHT22;368;48.698;9.116;2022-11-15T16:18:51;10.60;99.90
770;DHT22;368;48.698;9.116;2022-11-15T16:21:19;10.50;99.90
770;DHT22;368;48.698;9.116;2022-11-15T16:23:45;10.70;99.90
770;DHT22;368;48.698;9.116;2022-11-15T16:26:19;10.80;99.90
770;DHT22;368;48.698;9.116;2022-11-15T16:28:46;10.40;99.90
770;DHT22;368;48.698;9.116;2022-11-15T16:31:13;10.50;99.90
770;DHT22;368;48.698;9.116;2022-11-15T16:33:42;10.60;99.90
770;DHT22;368;48.698;9.116;2022-11-15T16:36:18;10.70;99.90
770;DHT22;368;48.698;9.116;2022-11-15T16:38:46;10.50;99.90
770;DHT22;368;48.698;9.116;2022-11-15T16:41:14;10.80;99.90
770;DHT22;368;48.698;9.116;2022-11-15T16:43:43;10.60;99.90
770;DHT22;368;48.698;9.116;2022-11-15T16:46:14;10.50;99.90
770;DHT22;368;48.698;9.116;2022-11-15T16:48:42;10.70;99.90
770;DHT22;368;48.698;9.116;2022-11-15T16:51:09;10.40;99.90
770;DHT22;368;48.698;9.116;2022-11-15T16:53:36;10.40;99.90
770;DHT22;368;48.698;9.116;2022-11-15T16:56:04;10.50;99.90
770;DHT22;368;48.698;9.116;2022-11-15T16:58:40;10.60;99.90
770;DHT22;368;48.698;9.116;2022-11-15T17:01:17;10.50;99.90
770;DHT22;368;48.698;9.116;2022-11-15T17:03:44;10.30;99.90
770;DHT22;368;48.698;9.116;2022-11-15T17:06:12;10.40;99.90
770;DHT22;368;48.698;9.116;2022-11-15T17:08:40;10.40;99.90
770;DHT22;368;48.698;9.116;2022-11-15T17:11:07;10.40;99.90
770;DHT22;368;48.698;9.116;2022-11-15T17:13:34;10.20;99.90
770;DHT22;368;48.698;9.116;2022-11-15T17:16:08;10.50;99.90
770;DHT22;368;48.698;9.116;2022-11-15T17:18:35;10.40;99.90
770;DHT22;368;48.698;9.116;2022-11-15T17:21:04;10.70;99.90